Time;durP1;ratioP1;P1;durP2;ratioP2;P2;SDS_P1;SDS_P2;PMS_P1;PMS_P2;Temp;Humidity;BMP_temperature;BMP_pressure;BME280_temperature;BME280_humidity;BME280_pressure;Samples;Min_cycle;Max_cycle;Signal;HPM_P1;HPM_P2
2022/12/05 00:01:29;;;;;;;34.35;19.67;;;6.30;99.90;;;;;;5018998;28;20088;-66
2022/12/05 00:04:01;;;;;;;38.10;19.95;;;6.30;99.90;;;;;;5003337;28;20038;-66
2022/12/05 00:06:30;;;;;;;32.80;20.52;;;6.30;99.90;;;;;;5016981;28;20041;-67
2022/12/05 00:08:57;;;;;;;33.78;20.50;;;6.30;99.90;;;;;;4994953;28;20080;-65
2022/12/05 00:11:28;;;;;;;36.63;20.70;;;6.40;99.90;;;;;;5014536;28;20088;-65
2022/12/05 00:13:58;;;;;;;37.75;21.00;;;6.30;99.90;;;;;;5011104;28;20041;-65
2022/12/05 00:16:27;;;;;;;39.05;20.98;;;6.30;99.90;;;;;;5017059;28;20044;-65
2022/12/05 00:18:55;;;;;;;33.20;19.50;;;6.30;99.90;;;;;;5019205;28;20045;-65
2022/12/05 00:21:25;;;;;;;34.17;20.15;;;6.30;99.90;;;;;;5020030;28;20045;-65
2022/12/05 00:23:55;;;;;;;38.03;21.23;;;6.20;99.90;;;;;;5023665;28;20041;-65
2022/12/05 00:26:22;;;;;;;31.65;19.98;;;6.20;99.90;;;;;;5014796;28;20075;-65
2022/12/05 00:28:50;;;;;;;37.72;21.20;;;6.20;99.90;;;;;;5027555;28;20052;-65
2022/12/05 00:31:22;;;;;;;35.58;20.83;;;6.20;99.90;;;;;;5014510;28;20050;-65
2022/12/05 00:33:50;;;;;;;42.38;21.05;;;6.20;99.90;;;;;;5018560;28;20042;-66
2022/12/05 00:36:20;;;;;;;37.08;21.42;;;6.20;99.90;;;;;;5025892;28;20143;-65
2022/12/05 00:38:48;;;;;;;41.60;22.55;;;6.10;99.90;;;;;;5012164;28;20060;-65
2022/12/05 00:41:19;;;;;;;39.40;21.52;;;6.10;99.90;;;;;;5018561;28;20050;-65
2022/12/05 00:43:46;;;;;;;41.10;21.80;;;6.10;99.90;;;;;;5019734;28;20121;-65
2022/12/05 00:46:16;;;;;;;43.35;20.88;;;6.10;99.90;;;;;;5017319;28;20049;-65
2022/12/05 00:48:44;;;;;;;46.75;23.30;;;6.10;99.90;;;;;;5021194;28;20392;-65
2022/12/05 00:51:11;;;;;;;39.38;21.30;;;6.10;99.90;;;;;;5025606;28;20038;-65
2022/12/05 00:53:39;;;;;;;40.42;21.35;;;6.10;99.90;;;;;;5015575;28;20053;-66
2022/12/05 00:56:13;;;;;;;39.47;21.65;;;6.10;99.90;;;;;;5016103;28;20146;-65
2022/12/05 00:58:40;;;;;;;37.25;21.70;;;6.10;99.90;;;;;;5015514;28;20412;-64
2022/12/05 01:01:20;;;;;;;37.17;20.85;;;6.10;99.90;;;;;;5017510;28;20049;-66
2022/12/05 01:03:48;;;;;;;44.35;23.52;;;6.10;99.90;;;;;;5019106;28;20056;-66
2022/12/05 01:06:15;;;;;;;38.42;22.15;;;6.10;99.90;;;;;;5026380;28;20044;-69
2022/12/05 01:08:43;;;;;;;43.75;23.45;;;6.10;99.90;;;;;;5015153;28;20042;-66
2022/12/05 01:11:13;;;;;;;42.85;23.42;;;6.10;99.90;;;;;;5014814;28;20067;-66
2022/12/05 01:13:41;;;;;;;40.83;22.92;;;6.20;99.90;;;;;;5015840;28;20104;-66
2022/12/05 01:16:25;;;;;;;40.38;22.58;;;6.20;99.90;;;;;;5021756;28;20038;-67
2022/12/05 01:18:53;;;;;;;45.33;23.50;;;6.20;99.90;;;;;;5019847;28;20531;-67
2022/12/05 01:21:21;;;;;;;43.60;23.63;;;6.10;99.90;;;;;;5029825;28;20053;-67
2022/12/05 01:23:49;;;;;;;43.20;23.90;;;6.10;99.90;;;;;;5019120;28;20068;-66
2022/12/05 01:26:18;;;;;;;43.65;23.73;;;6.10;99.90;;;;;;5031600;28;20518;-67
2022/12/05 01:28:46;;;;;;;45.75;24.60;;;6.10;99.90;;;;;;5031666;28;20049;-67
2022/12/05 01:31:20;;;;;;;43.20;22.85;;;6.00;99.90;;;;;;5026166;28;20527;-66
2022/12/05 01:33:48;;;;;;;41.72;22.58;;;6.00;99.90;;;;;;5028761;28;20058;-67
2022/12/05 01:36:16;;;;;;;44.25;23.65;;;5.90;99.90;;;;;;5018774;28;20540;-65
2022/12/05 01:38:43;;;;;;;42.60;23.98;;;6.00;99.90;;;;;;5030125;28;20053;-66
2022/12/05 01:41:15;;;;;;;44.00;22.92;;;5.90;99.90;;;;;;5028392;28;20068;-66
2022/12/05 01:43:58;;;;;;;45.75;24.63;;;5.90;99.90;;;;;;5031326;28;20120;-66
2022/12/05 01:46:28;;;;;;;48.38;24.38;;;5.90;99.90;;;;;;5018161;28;20460;-66
2022/12/05 01:49:11;;;;;;;43.42;23.23;;;5.90;99.90;;;;;;5031508;28;20408;-66
2022/12/05 01:51:41;;;;;;;43.92;22.95;;;5.90;99.90;;;;;;5030813;28;20033;-65
2022/12/05 01:54:10;;;;;;;44.92;23.00;;;5.90;99.90;;;;;;5032239;28;20050;-65
2022/12/05 01:56:39;;;;;;;46.20;23.13;;;5.90;99.90;;;;;;5032059;28;20045;-66
2022/12/05 01:59:10;;;;;;;40.17;23.15;;;5.90;99.90;;;;;;5026749;28;20073;-65
2022/12/05 02:01:38;;;;;;;42.40;23.30;;;5.80;99.90;;;;;;5018890;28;20057;-67
2022/12/05 02:04:06;;;;;;;42.17;24.08;;;5.80;99.90;;;;;;5028662;28;20583;-67
2022/12/05 02:06:33;;;;;;;41.72;23.38;;;5.80;99.90;;;;;;5031131;28;20120;-66
2022/12/05 02:09:01;;;;;;;42.92;23.42;;;5.80;99.90;;;;;;5029050;28;20081;-67
2022/12/05 02:11:30;;;;;;;37.45;21.65;;;5.80;99.90;;;;;;5017926;28;20056;-66
2022/12/05 02:14:23;;;;;;;43.47;22.63;;;5.70;99.90;;;;;;5024722;28;20045;-67
2022/12/05 02:17:28;;;;;;;41.08;22.38;;;5.70;99.90;;;;;;5025329;28;20475;-66
2022/12/05 02:20:17;;;;;;;39.95;21.27;;;5.70;99.90;;;;;;5027887;28;20513;-66
2022/12/05 02:23:02;;;;;;;41.45;21.92;;;5.70;99.90;;;;;;5025143;28;20075;-67
2022/12/05 02:26:07;;;;;;;40.47;22.00;;;5.60;99.90;;;;;;5023838;28;20468;-65
2022/12/05 02:29:05;;;;;;;40.50;20.98;;;5.60;99.90;;;;;;5028750;28;20088;-67
2022/12/05 02:31:43;;;;;;;38.10;20.63;;;5.60;99.90;;;;;;5029956;28;20049;-65
2022/12/05 02:34:32;;;;;;;37.40;21.27;;;5.60;99.90;;;;;;5031265;28;20472;-65
2022/12/05 02:37:15;;;;;;;38.33;19.98;;;5.60;99.90;;;;;;5015759;28;20050;-67
2022/12/05 02:39:59;;;;;;;37.38;20.35;;;5.60;99.90;;;;;;5029128;28;20496;-66
2022/12/05 02:42:34;;;;;;;35.13;20.45;;;5.70;99.90;;;;;;5029249;28;20041;-66
2022/12/05 02:45:08;;;;;;;39.70;21.42;;;5.60;99.90;;;;;;5030623;28;20041;-66
2022/12/05 02:47:45;;;;;;;37.00;20.73;;;5.60;99.90;;;;;;5029772;28;20056;-66
2022/12/05 02:50:16;;;;;;;35.58;20.60;;;5.60;99.90;;;;;;5020720;28;20037;-66
2022/12/05 02:52:47;;;;;;;34.95;19.92;;;5.60;99.90;;;;;;5030779;28;20061;-65
2022/12/05 02:55:17;;;;;;;35.17;19.60;;;5.60;99.90;;;;;;5025387;28;20045;-66
2022/12/05 02:57:51;;;;;;;33.40;18.70;;;5.60;99.90;;;;;;5031037;28;20808;-70
2022/12/05 03:00:19;;;;;;;33.30;18.73;;;5.60;99.90;;;;;;5030805;28;20117;-66
2022/12/05 03:02:47;;;;;;;32.55;18.77;;;5.50;99.90;;;;;;5027110;28;20083;-66
2022/12/05 03:05:39;;;;;;;31.83;17.75;;;5.50;99.90;;;;;;5030342;28;20128;-66
2022/12/05 03:08:11;;;;;;;32.35;18.20;;;5.50;99.90;;;;;;5026750;28;20434;-65
2022/12/05 03:10:41;;;;;;;;;;;5.40;99.90;;;;;;5016662;28;20045;-66
2022/12/05 03:13:17;;;;;;;27.67;15.90;;;5.40;99.90;;;;;;5025942;28;19928;-66
2022/12/05 03:15:49;;;;;;;29.85;17.23;;;5.40;99.90;;;;;;5026605;28;20041;-65
2022/12/05 03:18:23;;;;;;;27.92;16.25;;;5.30;99.90;;;;;;5013379;28;20053;-64
2022/12/05 03:20:59;;;;;;;26.70;15.77;;;5.30;99.90;;;;;;5011559;28;20467;-65
2022/12/05 03:23:35;;;;;;;26.70;14.90;;;5.30;99.90;;;;;;5010891;28;20031;-65
2022/12/05 03:26:44;;;;;;;24.23;15.07;;;5.30;99.90;;;;;;5030185;28;20068;-65
2022/12/05 03:29:35;;;;;;;27.40;15.10;;;5.30;99.90;;;;;;5027212;28;20097;-65
2022/12/05 03:32:32;;;;;;;24.73;14.57;;;5.20;99.90;;;;;;5027548;28;20043;-65
2022/12/05 03:35:10;;;;;;;23.75;14.13;;;5.10;99.90;;;;;;5026186;28;20171;-66
2022/12/05 03:37:51;;;;;;;25.48;15.07;;;5.10;99.90;;;;;;5026593;28;20049;-65
2022/12/05 03:40:30;;;;;;;25.38;14.80;;;5.10;99.90;;;;;;4994290;28;20086;-66
2022/12/05 03:43:04;;;;;;;28.67;16.15;;;5.10;99.90;;;;;;5023442;28;20053;-65
2022/12/05 03:45:38;;;;;;;24.45;13.73;;;5.00;99.90;;;;;;5009420;28;20435;-65
2022/12/05 03:48:09;;;;;;;23.42;15.05;;;5.00;99.90;;;;;;5027248;28;20115;-65
2022/12/05 03:50:40;;;;;;;21.00;13.40;;;5.00;99.90;;;;;;5026612;28;20109;-66
2022/12/05 03:53:15;;;;;;;22.40;12.52;;;5.00;99.90;;;;;;5013937;28;20046;-65
2022/12/05 03:56:06;;;;;;;21.65;13.02;;;5.00;99.90;;;;;;5002395;28;20105;-65
2022/12/05 03:58:55;;;;;;;20.00;13.13;;;5.00;99.90;;;;;;5009559;28;20057;-65
2022/12/05 04:01:26;;;;;;;21.13;12.65;;;5.00;99.90;;;;;;5009767;28;20451;-66
2022/12/05 04:04:02;;;;;;;19.00;12.93;;;5.10;99.90;;;;;;5024772;28;20073;-64
2022/12/05 04:06:38;;;;;;;19.73;12.23;;;5.00;99.90;;;;;;5010870;28;20527;-69
2022/12/05 04:09:11;;;;;;;20.38;12.68;;;4.90;99.90;;;;;;5011046;28;20387;-64
2022/12/05 04:11:50;;;;;;;21.08;12.82;;;4.90;99.90;;;;;;5018217;28;20042;-65
2022/12/05 04:14:24;;;;;;;20.15;12.35;;;4.90;99.90;;;;;;5029436;28;20433;-67
2022/12/05 04:17:05;;;;;;;20.40;11.77;;;4.90;99.90;;;;;;5027879;28;20504;-65
2022/12/05 04:22:45;;;;;;;19.65;12.05;;;4.80;99.90;;;;;;5020838;28;20041;-67
2022/12/05 04:25:33;;;;;;;21.73;13.15;;;4.80;99.90;;;;;;5008466;28;20404;-66
2022/12/05 04:28:23;;;;;;;19.60;12.07;;;4.70;99.90;;;;;;5014945;28;20451;-66
2022/12/05 04:31:13;;;;;;;20.50;11.18;;;4.70;99.90;;;;;;5017039;28;20119;-66
2022/12/05 04:33:46;;;;;;;17.73;11.85;;;4.70;99.90;;;;;;5009945;28;20037;-66
2022/12/05 04:36:20;;;;;;;20.40;10.68;;;4.70;99.90;;;;;;5016630;28;20056;-65
2022/12/05 04:39:16;;;;;;;17.73;11.02;;;4.60;99.90;;;;;;5027262;28;20143;-65
2022/12/05 04:42:16;;;;;;;18.08;10.80;;;4.60;99.90;;;;;;5008774;28;20108;-65
2022/12/05 04:44:54;;;;;;;15.68;9.45;;;4.60;99.90;;;;;;5001111;28;20084;-64
2022/12/05 04:47:26;;;;;;;16.08;9.48;;;4.60;99.90;;;;;;5017635;28;20095;-65
2022/12/05 04:49:55;;;;;;;15.30;9.45;;;4.60;99.90;;;;;;5022515;28;20049;-65
2022/12/05 04:52:24;;;;;;;15.82;9.32;;;4.60;99.90;;;;;;5027440;28;20453;-66
2022/12/05 04:55:01;;;;;;;15.57;9.00;;;4.60;99.90;;;;;;5030169;28;20450;-65
2022/12/05 04:57:39;;;;;;;13.70;8.05;;;4.60;99.90;;;;;;5033621;28;20087;-70
2022/12/05 05:00:07;;;;;;;15.00;9.23;;;4.60;99.90;;;;;;5020561;28;20452;-71
2022/12/05 05:02:45;;;;;;;14.85;8.40;;;4.60;99.90;;;;;;5009316;28;20062;-65
2022/12/05 05:05:17;;;;;;;14.82;8.27;;;4.50;99.90;;;;;;5018096;28;20049;-66
2022/12/05 05:07:53;;;;;;;16.58;8.30;;;4.40;99.90;;;;;;5029488;28;20049;-66
2022/12/05 05:10:31;;;;;;;17.48;8.43;;;4.40;99.90;;;;;;5018418;28;20490;-66
2022/12/05 05:12:58;;;;;;;15.38;8.45;;;4.40;99.90;;;;;;5026274;28;20041;-67
2022/12/05 05:15:25;;;;;;;14.68;8.18;;;4.40;99.90;;;;;;5030475;28;20045;-65
2022/12/05 05:17:53;;;;;;;13.93;7.75;;;4.40;99.90;;;;;;5025565;28;20061;-67
2022/12/05 05:20:23;;;;;;;16.08;7.90;;;4.40;99.90;;;;;;5027930;28;20060;-65
2022/12/05 05:22:52;;;;;;;13.18;7.60;;;4.40;99.90;;;;;;5024077;28;20128;-66
2022/12/05 05:25:20;;;;;;;13.13;7.97;;;4.40;99.90;;;;;;5032598;28;20052;-70
2022/12/05 05:27:53;;;;;;;13.93;7.53;;;4.40;99.90;;;;;;5031672;28;20551;-66
2022/12/05 05:30:22;;;;;;;13.35;7.53;;;4.40;99.90;;;;;;5020657;28;20145;-67
2022/12/05 05:32:50;;;;;;;11.52;6.95;;;4.40;99.90;;;;;;5022311;28;20038;-68
2022/12/05 05:35:17;;;;;;;12.63;7.20;;;4.40;99.90;;;;;;5028102;28;20083;-69
2022/12/05 05:37:45;;;;;;;12.38;7.00;;;4.40;99.90;;;;;;5020663;28;20496;-66
2022/12/05 05:40:13;;;;;;;11.68;7.47;;;4.40;99.90;;;;;;5030418;28;20053;-69
2022/12/05 05:42:49;;;;;;;11.98;7.18;;;4.30;99.90;;;;;;5031173;28;20096;-70
2022/12/05 05:45:17;;;;;;;12.02;7.53;;;4.40;99.90;;;;;;5024285;28;20054;-67
2022/12/05 05:47:47;;;;;;;14.07;7.63;;;4.30;99.90;;;;;;5014540;28;20077;-67
2022/12/05 05:50:15;;;;;;;11.38;6.82;;;4.30;99.90;;;;;;5012377;28;20560;-67
2022/12/05 05:52:48;;;;;;;10.65;7.13;;;4.40;99.90;;;;;;5028481;28;20042;-67
2022/12/05 05:55:15;;;;;;;11.32;7.03;;;4.30;99.90;;;;;;5024686;28;20057;-68
2022/12/05 05:57:42;;;;;;;12.57;6.85;;;4.30;99.90;;;;;;5000872;28;20145;-68
2022/12/05 06:00:11;;;;;;;13.23;7.60;;;4.30;99.90;;;;;;5025022;28;20042;-68
2022/12/05 06:02:38;;;;;;;15.93;8.27;;;4.30;99.90;;;;;;5019068;28;20129;-68
2022/12/05 06:05:06;;;;;;;17.70;9.68;;;4.30;99.90;;;;;;5031769;28;20037;-72
2022/12/05 06:07:33;;;;;;;21.25;10.70;;;4.20;99.90;;;;;;5019129;28;20049;-69
2022/12/05 06:10:01;;;;;;;23.88;10.93;;;4.20;99.90;;;;;;5023730;28;20357;-73
2022/12/05 06:12:28;;;;;;;19.67;10.75;;;4.10;99.90;;;;;;4994698;28;20056;-68
2022/12/05 06:14:56;;;;;;;21.27;10.93;;;4.00;99.90;;;;;;5018236;28;20046;-67
2022/12/05 06:17:23;;;;;;;24.55;12.27;;;4.00;99.90;;;;;;5021435;28;20052;-68
2022/12/05 06:19:50;;;;;;;23.38;11.70;;;4.00;99.90;;;;;;5003889;28;20673;-71
2022/12/05 06:22:18;;;;;;;22.80;11.05;;;4.00;99.90;;;;;;5024054;28;20041;-67
2022/12/05 06:24:45;;;;;;;24.17;13.10;;;3.90;99.90;;;;;;5025569;28;20516;-68
2022/12/05 06:27:12;;;;;;;23.23;10.98;;;3.80;99.90;;;;;;5030113;28;20045;-69
2022/12/05 06:29:40;;;;;;;21.35;11.32;;;3.90;99.90;;;;;;5031285;28;20415;-67
2022/12/05 06:32:07;;;;;;;23.77;11.85;;;3.80;99.90;;;;;;5025830;28;20488;-67
2022/12/05 06:34:35;;;;;;;23.23;11.75;;;3.80;99.90;;;;;;5023902;28;20463;-69
2022/12/05 06:37:03;;;;;;;24.85;12.65;;;3.80;99.90;;;;;;5017732;28;20042;-68
2022/12/05 06:39:30;;;;;;;25.80;12.85;;;3.80;99.90;;;;;;5014908;28;20073;-68
2022/12/05 06:41:57;;;;;;;22.83;11.98;;;3.80;99.90;;;;;;5010073;28;20145;-67
2022/12/05 06:44:25;;;;;;;25.33;12.65;;;3.70;99.90;;;;;;5012758;28;20503;-70
2022/12/05 06:46:53;;;;;;;25.52;12.05;;;3.70;99.90;;;;;;5011749;28;20056;-69
2022/12/05 06:49:24;;;;;;;24.60;12.73;;;3.70;99.90;;;;;;5012975;28;20071;-69
2022/12/05 06:51:59;;;;;;;24.13;12.50;;;3.60;99.90;;;;;;5002659;28;20049;-67
2022/12/05 06:54:26;;;;;;;27.48;13.25;;;3.60;99.90;;;;;;5007210;28;20046;-70
2022/12/05 06:56:53;;;;;;;25.52;11.65;;;3.60;99.90;;;;;;5003195;28;20081;-69
2022/12/05 06:59:21;;;;;;;26.33;13.10;;;3.60;99.90;;;;;;5007508;28;20057;-68
2022/12/05 07:01:48;;;;;;;27.48;14.32;;;3.60;99.90;;;;;;5010410;28;20728;-68
2022/12/05 07:04:20;;;;;;;29.20;12.38;;;3.50;99.90;;;;;;5021768;28;20053;-69
2022/12/05 07:06:48;;;;;;;27.07;12.57;;;3.50;99.90;;;;;;5026118;28;20052;-68
2022/12/05 07:09:20;;;;;;;26.27;12.27;;;3.50;99.90;;;;;;5023087;28;20046;-68
2022/12/05 07:11:50;;;;;;;30.48;14.18;;;3.60;99.90;;;;;;5019146;28;20052;-68
2022/12/05 07:14:18;;;;;;;26.67;13.07;;;3.60;99.90;;;;;;4998592;28;20362;-68
2022/12/05 07:17:05;;;;;;;31.42;13.43;;;3.50;99.90;;;;;;5016298;28;20061;-69
2022/12/05 07:19:32;;;;;;;31.02;14.23;;;3.50;99.90;;;;;;5016211;28;20089;-70
2022/12/05 07:22:00;;;;;;;29.05;14.75;;;3.50;99.90;;;;;;5016438;28;20053;-69
2022/12/05 07:24:27;;;;;;;30.77;14.38;;;3.50;99.90;;;;;;5015242;28;20067;-68
2022/12/05 07:26:54;;;;;;;26.75;13.30;;;3.50;99.90;;;;;;5019339;28;20084;-68
2022/12/05 07:29:22;;;;;;;26.70;13.07;;;3.50;99.90;;;;;;5024754;28;20488;-71
2022/12/05 07:31:49;;;;;;;33.53;13.88;;;3.40;99.90;;;;;;5006247;28;20050;-68
2022/12/05 07:34:16;;;;;;;28.83;14.07;;;3.50;99.90;;;;;;5025792;28;20148;-68
2022/12/05 07:36:44;;;;;;;27.85;14.07;;;3.40;99.90;;;;;;5018227;28;20056;-68
2022/12/05 07:39:11;;;;;;;27.95;13.88;;;3.50;99.90;;;;;;5008650;28;20050;-68
2022/12/05 07:41:38;;;;;;;26.77;14.30;;;3.50;99.90;;;;;;5009708;28;20505;-68
2022/12/05 07:44:10;;;;;;;28.30;13.43;;;3.50;99.90;;;;;;4998231;28;20076;-68
2022/12/05 07:46:38;;;;;;;27.15;13.77;;;3.50;99.90;;;;;;5010609;28;20045;-68
2022/12/05 07:49:06;;;;;;;29.67;15.07;;;3.60;99.90;;;;;;5012219;28;20140;-70
2022/12/05 07:51:34;;;;;;;29.15;13.57;;;3.60;99.90;;;;;;5000098;28;20487;-67
2022/12/05 07:54:02;;;;;;;26.55;13.30;;;3.60;99.90;;;;;;5009949;28;20119;-71
2022/12/05 07:56:29;;;;;;;27.48;14.15;;;3.70;99.90;;;;;;5015501;28;20567;-69
2022/12/05 07:58:56;;;;;;;30.10;14.38;;;3.70;99.90;;;;;;5025047;28;20049;-69
2022/12/05 08:01:26;;;;;;;29.08;14.80;;;3.70;99.90;;;;;;5012672;28;20492;-69
2022/12/05 08:03:56;;;;;;;30.35;13.95;;;3.70;99.90;;;;;;5035476;28;20038;-69
2022/12/05 08:06:28;;;;;;;30.77;13.48;;;3.70;99.90;;;;;;5002138;28;20045;-68
2022/12/05 08:08:55;;;;;;;29.15;13.65;;;3.70;99.90;;;;;;5018549;28;20041;-68
2022/12/05 08:11:29;;;;;;;27.73;13.00;;;3.70;99.90;;;;;;5025541;28;20038;-68
2022/12/05 08:13:57;;;;;;;31.75;13.73;;;3.70;99.90;;;;;;5019866;28;20128;-68
2022/12/05 08:16:27;;;;;;;27.48;13.85;;;3.80;99.90;;;;;;5026510;28;20122;-68
2022/12/05 08:19:04;;;;;;;26.73;13.20;;;3.80;99.90;;;;;;4999650;28;20042;-69
2022/12/05 08:21:32;;;;;;;29.50;13.85;;;3.80;99.90;;;;;;5013699;28;20467;-68
2022/12/05 08:24:00;;;;;;;32.35;14.32;;;3.90;99.90;;;;;;5020077;28;20096;-67
2022/12/05 08:26:30;;;;;;;32.42;15.45;;;4.10;99.90;;;;;;5014904;28;20033;-68
2022/12/05 08:29:02;;;;;;;27.20;13.32;;;4.10;99.90;;;;;;5015432;28;20040;-68
2022/12/05 08:31:33;;;;;;;29.75;14.45;;;4.10;99.90;;;;;;5018917;28;20048;-67
2022/12/05 08:34:00;;;;;;;27.92;13.60;;;4.10;99.90;;;;;;5026330;28;20121;-71
2022/12/05 08:36:29;;;;;;;33.40;13.77;;;4.10;99.90;;;;;;5018979;28;20088;-68
2022/12/05 08:39:00;;;;;;;30.88;14.35;;;4.10;99.90;;;;;;5004547;28;20086;-67
2022/12/05 08:41:28;;;;;;;29.23;13.75;;;4.10;99.90;;;;;;5011244;28;20083;-66
2022/12/05 08:43:58;;;;;;;28.52;13.75;;;4.00;99.90;;;;;;5026981;28;20069;-68
2022/12/05 08:46:25;;;;;;;28.58;14.52;;;4.00;99.90;;;;;;5011619;28;20064;-67
2022/12/05 08:48:53;;;;;;;29.25;14.10;;;4.10;99.90;;;;;;5016516;28;20096;-67
2022/12/05 08:51:20;;;;;;;26.83;13.52;;;4.20;99.90;;;;;;5015584;28;20040;-67
2022/12/05 08:53:48;;;;;;;27.88;13.23;;;4.20;99.90;;;;;;5014432;28;20053;-67
2022/12/05 08:56:15;;;;;;;30.83;14.48;;;4.30;99.90;;;;;;5021924;28;20163;-67
2022/12/05 08:58:47;;;;;;;27.45;13.52;;;4.30;99.90;;;;;;5031033;28;20041;-66
2022/12/05 09:01:18;;;;;;;25.83;12.73;;;4.50;99.90;;;;;;5024269;28;20037;-66
2022/12/05 09:03:46;;;;;;;26.40;12.73;;;4.60;99.90;;;;;;5002141;28;20038;-68
2022/12/05 09:06:24;;;;;;;26.63;13.25;;;4.50;99.90;;;;;;4983582;28;20453;-67
2022/12/05 09:08:56;;;;;;;27.80;14.82;;;4.50;99.90;;;;;;5028748;28;20057;-68
2022/12/05 09:11:27;;;;;;;31.02;15.32;;;4.50;99.90;;;;;;5024556;28;20061;-67
2022/12/05 09:13:56;;;;;;;28.70;14.07;;;4.40;99.90;;;;;;5003016;28;20046;-66
2022/12/05 09:16:29;;;;;;;28.75;13.35;;;4.40;99.90;;;;;;5015416;28;20060;-67
2022/12/05 09:19:12;;;;;;;26.20;13.57;;;4.30;99.90;;;;;;5012232;28;20054;-67
2022/12/05 09:21:40;;;;;;;30.27;14.38;;;4.30;99.90;;;;;;5008593;28;20508;-67
2022/12/05 09:24:08;;;;;;;30.63;14.82;;;4.40;99.90;;;;;;5012137;28;20041;-67
2022/12/05 09:26:35;;;;;;;31.13;15.10;;;4.40;99.90;;;;;;5002388;28;20224;-66
2022/12/05 09:29:03;;;;;;;28.60;14.05;;;4.40;99.90;;;;;;5015135;28;20044;-67
2022/12/05 09:31:30;;;;;;;29.92;15.80;;;4.40;99.90;;;;;;4991732;28;20132;-66
2022/12/05 09:33:59;;;;;;;32.22;14.68;;;4.50;99.90;;;;;;5029885;28;20076;-67
2022/12/05 09:36:28;;;;;;;26.83;13.70;;;4.50;99.90;;;;;;5019830;28;20455;-67
2022/12/05 09:39:01;;;;;;;27.15;14.32;;;4.50;99.90;;;;;;5008833;28;20061;-67
2022/12/05 09:42:04;;;;;;;26.60;13.77;;;4.50;99.90;;;;;;5024823;28;20396;-67
2022/12/05 09:45:09;;;;;;;26.95;13.70;;;4.60;99.90;;;;;;5029200;28;20049;-67
2022/12/05 09:48:14;;;;;;;32.38;15.80;;;4.60;99.90;;;;;;5014866;28;20526;-67
2022/12/05 09:50:48;;;;;;;30.17;13.88;;;4.60;99.90;;;;;;5032103;28;20045;-67
2022/12/05 09:53:26;;;;;;;34.50;17.35;;;4.70;99.90;;;;;;5018418;28;20095;-68
2022/12/05 09:56:04;;;;;;;30.58;16.65;;;4.80;99.90;;;;;;5009665;28;20045;-67
2022/12/05 09:58:42;;;;;;;28.00;15.90;;;4.90;99.90;;;;;;5029821;28;20045;-68
2022/12/05 10:01:15;;;;;;;29.50;14.60;;;4.90;99.90;;;;;;5025465;28;20480;-67
2022/12/05 10:04:17;;;;;;;27.20;14.45;;;5.00;99.90;;;;;;5030941;28;20518;-67
2022/12/05 10:06:59;;;;;;;31.92;15.00;;;4.90;99.90;;;;;;5013824;28;20050;-67
2022/12/05 10:09:27;;;;;;;27.90;14.27;;;4.90;99.90;;;;;;5014478;28;20046;-68
2022/12/05 10:12:02;;;;;;;31.15;14.82;;;5.00;99.90;;;;;;5007495;28;20042;-69
2022/12/05 10:15:00;;;;;;;28.02;14.15;;;5.00;99.90;;;;;;5001001;28;20508;-68
2022/12/05 10:17:38;;;;;;;30.10;14.43;;;5.00;99.90;;;;;;5026979;28;20049;-68
2022/12/05 10:20:30;;;;;;;27.48;15.07;;;5.00;99.90;;;;;;5010565;28;20041;-69
2022/12/05 10:23:14;;;;;;;34.53;15.70;;;5.10;99.90;;;;;;5027204;28;20049;-68
2022/12/05 10:26:05;;;;;;;33.17;14.57;;;5.30;99.90;;;;;;5019482;28;20041;-69
2022/12/05 10:29:10;;;;;;;31.40;14.70;;;5.10;99.90;;;;;;5019580;28;20534;-67
2022/12/05 10:31:40;;;;;;;32.58;15.55;;;5.10;99.90;;;;;;5025966;28;20044;-67
2022/12/05 10:34:16;;;;;;;31.70;15.13;;;5.10;99.90;;;;;;5029279;28;20045;-67
2022/12/05 10:36:55;;;;;;;30.45;14.32;;;5.10;99.90;;;;;;5016992;28;20081;-68
2022/12/05 10:39:22;;;;;;;30.70;14.10;;;5.10;99.90;;;;;;5018365;28;20053;-67
2022/12/05 10:41:50;;;;;;;28.42;14.60;;;5.10;99.90;;;;;;5026260;28;20122;-67
2022/12/05 10:44:17;;;;;;;30.15;15.43;;;5.10;99.90;;;;;;5025019;28;20072;-67
2022/12/05 10:46:45;;;;;;;26.48;15.13;;;5.20;99.90;;;;;;5026920;28;20079;-66
2022/12/05 10:49:12;;;;;;;28.70;14.02;;;5.30;99.90;;;;;;5000107;28;20131;-69
2022/12/05 10:51:40;;;;;;;27.02;14.32;;;5.30;99.90;;;;;;5030481;28;20042;-67
2022/12/05 10:54:24;;;;;;;24.52;13.05;;;5.20;99.90;;;;;;5026326;28;20045;-67
2022/12/05 10:56:52;;;;;;;26.02;14.48;;;5.20;99.90;;;;;;5016758;28;20041;-67
2022/12/05 10:59:23;;;;;;;27.63;14.65;;;5.20;99.90;;;;;;5025802;28;20075;-66
2022/12/05 11:01:53;;;;;;;30.55;15.85;;;5.10;99.90;;;;;;5013513;28;20048;-67
2022/12/05 11:04:42;;;;;;;27.35;14.25;;;5.30;99.90;;;;;;5024711;28;20376;-68
2022/12/05 11:07:34;;;;;;;29.63;15.13;;;5.40;99.90;;;;;;5025026;28;20045;-68
2022/12/05 11:10:17;;;;;;;;;;;5.30;99.90;;;;;;5030410;28;20388;-67
2022/12/05 11:12:51;;;;;;;28.08;14.23;;;5.20;99.90;;;;;;5021904;28;19928;-67
2022/12/05 11:15:23;;;;;;;25.75;13.88;;;5.20;99.90;;;;;;5030023;28;20528;-67
2022/12/05 11:17:55;;;;;;;27.85;14.10;;;5.00;99.90;;;;;;5029370;28;20045;-68
2022/12/05 11:20:22;;;;;;;;;;;5.00;99.90;;;;;;5015453;28;20069;-67
2022/12/05 11:22:52;;;;;;;28.35;13.38;;;5.00;99.90;;;;;;5010111;28;19920;-69
2022/12/05 11:25:34;;;;;;;26.17;12.93;;;5.10;99.90;;;;;;5025246;28;20041;-69
2022/12/05 11:28:16;;;;;;;28.63;13.43;;;5.10;99.90;;;;;;5021028;28;20075;-67
2022/12/05 11:31:10;;;;;;;25.30;13.40;;;5.10;99.90;;;;;;5023114;28;20485;-68
2022/12/05 11:33:39;;;;;;;24.92;13.27;;;5.20;99.90;;;;;;5025758;28;20069;-69
2022/12/05 11:36:18;;;;;;;23.13;13.10;;;5.20;99.90;;;;;;5023721;28;20261;-67
2022/12/05 11:38:46;;;;;;;23.02;12.95;;;5.30;99.90;;;;;;5009590;28;20116;-68
2022/12/05 11:41:22;;;;;;;26.83;13.30;;;5.30;99.90;;;;;;5036330;28;20485;-67
2022/12/05 11:44:17;;;;;;;24.30;13.30;;;5.30;99.90;;;;;;5009959;28;20046;-69
2022/12/05 11:47:05;;;;;;;30.02;13.45;;;5.30;99.90;;;;;;5018576;28;20115;-68
2022/12/05 11:49:36;;;;;;;21.60;12.40;;;5.30;99.90;;;;;;5017182;28;20108;-68
2022/12/05 11:52:21;;;;;;;20.30;11.80;;;5.30;99.90;;;;;;5021554;28;20455;-68
2022/12/05 11:55:25;;;;;;;21.25;12.13;;;5.20;99.90;;;;;;5014371;28;20061;-68
2022/12/05 11:58:24;;;;;;;21.13;11.43;;;5.10;99.90;;;;;;5009809;28;20046;-67
2022/12/05 12:01:03;;;;;;;21.40;12.65;;;5.20;99.90;;;;;;5025843;28;20064;-69
2022/12/05 12:03:52;;;;;;;23.15;12.38;;;5.20;99.90;;;;;;5016778;28;20083;-69
2022/12/05 12:07:00;;;;;;;21.42;10.82;;;5.30;99.90;;;;;;5016351;28;20421;-67
2022/12/05 12:09:46;;;;;;;21.33;11.48;;;5.30;99.90;;;;;;5020303;28;20062;-67
2022/12/05 12:12:30;;;;;;;18.70;11.43;;;5.40;99.90;;;;;;5022422;28;20038;-67
2022/12/05 12:15:28;;;;;;;21.17;11.80;;;5.50;99.90;;;;;;5020468;28;20129;-67
2022/12/05 12:18:30;;;;;;;20.13;12.00;;;5.40;99.90;;;;;;5018867;28;20060;-67
2022/12/05 12:21:28;;;;;;;21.13;12.00;;;5.50;99.90;;;;;;5026130;28;20115;-68
2022/12/05 12:24:21;;;;;;;19.15;10.98;;;5.60;99.90;;;;;;5020376;28;20054;-69
2022/12/05 12:27:30;;;;;;;19.63;11.40;;;5.80;99.90;;;;;;5028130;28;20061;-68
2022/12/05 12:30:05;;;;;;;21.95;13.20;;;5.80;99.90;;;;;;5024630;28;20508;-68
2022/12/05 12:32:51;;;;;;;29.92;16.63;;;5.90;99.90;;;;;;5031898;28;20515;-67
2022/12/05 12:35:52;;;;;;;20.70;11.05;;;5.90;99.90;;;;;;5029884;28;20059;-68
2022/12/05 12:38:52;;;;;;;19.92;11.43;;;5.70;99.90;;;;;;5017362;28;20061;-68
2022/12/05 12:41:52;;;;;;;19.33;11.20;;;5.70;99.90;;;;;;5030415;28;20056;-67
2022/12/05 12:44:56;;;;;;;20.48;11.65;;;5.70;99.90;;;;;;5013440;28;20057;-71
2022/12/05 12:48:11;;;;;;;21.50;11.80;;;5.60;99.90;;;;;;5011254;28;20132;-71
2022/12/05 12:50:44;;;;;;;19.83;10.93;;;5.50;99.90;;;;;;4912582;29;20547;-71
2022/12/05 12:53:20;;;;;;;22.20;11.30;;;5.50;99.90;;;;;;4921862;29;20439;-70
2022/12/05 12:56:37;;;;;;;23.63;12.18;;;5.50;99.90;;;;;;4930926;29;20083;-70
2022/12/05 12:59:07;;;;;;;19.85;11.30;;;5.50;99.90;;;;;;4931399;29;20087;-70
2022/12/05 13:01:51;;;;;;;24.77;13.25;;;5.50;99.90;;;;;;4929787;29;20044;-70
2022/12/05 13:04:33;;;;;;;32.53;17.65;;;5.50;99.90;;;;;;4931867;29;20492;-71
2022/12/05 13:07:11;;;;;;;27.17;15.32;;;5.50;99.90;;;;;;4930369;29;20121;-71
2022/12/05 13:09:46;;;;;;;25.00;13.32;;;5.50;99.90;;;;;;4931867;29;20051;-70
2022/12/05 13:12:25;;;;;;;24.73;13.00;;;5.50;99.90;;;;;;4916170;29;20083;-71
2022/12/05 13:14:58;;;;;;;23.67;13.15;;;5.50;99.90;;;;;;4931612;29;20631;-71
2022/12/05 13:17:29;;;;;;;24.35;12.63;;;5.50;99.90;;;;;;4918614;29;20067;-70
2022/12/05 13:19:57;;;;;;;20.25;11.27;;;5.50;99.90;;;;;;4932463;29;20059;-71
2022/12/05 13:22:27;;;;;;;21.25;12.73;;;5.60;99.90;;;;;;4919940;29;20435;-71